sensor_id;sensor_type;location;lat;lon;timestamp;pressure;altitude;pressure_sealevel;temperature;humidity
49297;BME280;35163;48.878;18.040;2022-10-22T00:01:05;98452.03;;;10.08;70.83
49297;BME280;35163;48.878;18.040;2022-10-22T00:03:32;98449.47;;;10.07;70.50
49297;BME280;35163;48.878;18.040;2022-10-22T00:05:59;98448.47;;;10.13;70.10
49297;BME280;35163;48.878;18.040;2022-10-22T00:08:25;98452.78;;;10.12;69.93
49297;BME280;35163;48.878;18.040;2022-10-22T00:10:52;98453.69;;;10.11;69.65
49297;BME280;35163;48.878;18.040;2022-10-22T00:13:19;98458.13;;;10.06;70.33
49297;BME280;35163;48.878;18.040;2022-10-22T00:15:46;98450.38;;;10.06;70.17
49297;BME280;35163;48.878;18.040;2022-10-22T00:18:12;98455.59;;;10.04;70.54
49297;BME280;35163;48.878;18.040;2022-10-22T00:20:39;98468.47;;;10.06;70.42
49297;BME280;35163;48.878;18.040;2022-10-22T00:23:06;98459.00;;;10.05;69.80
49297;BME280;35163;48.878;18.040;2022-10-22T00:25:34;98452.97;;;10.06;70.09
49297;BME280;35163;48.878;18.040;2022-10-22T00:28:02;98453.03;;;10.03;70.04
49297;BME280;35163;48.878;18.040;2022-10-22T00:30:28;98449.75;;;9.98;70.26
49297;BME280;35163;48.878;18.040;2022-10-22T00:32:55;98449.75;;;9.98;69.99
49297;BME280;35163;48.878;18.040;2022-10-22T00:35:21;98445.38;;;10.00;69.98
49297;BME280;35163;48.878;18.040;2022-10-22T00:37:48;98437.72;;;9.96;70.27
49297;BME280;35163;48.878;18.040;2022-10-22T00:40:14;98436.91;;;9.94;70.19
49297;BME280;35163;48.878;18.040;2022-10-22T00:42:41;98428.38;;;9.92;70.53
49297;BME280;35163;48.878;18.040;2022-10-22T00:50:26;98424.09;;;9.91;70.95
49297;BME280;35163;48.878;18.040;2022-10-22T00:52:55;98419.63;;;9.96;70.53
49297;BME280;35163;48.878;18.040;2022-10-22T00:55:24;98410.97;;;9.99;70.53
49297;BME280;35163;48.878;18.040;2022-10-22T00:57:53;98404.00;;;10.01;70.73
49297;BME280;35163;48.878;18.040;2022-10-22T01:00:21;98395.06;;;9.83;71.29
49297;BME280;35163;48.878;18.040;2022-10-22T01:02:49;98396.97;;;9.76;71.53
49297;BME280;35163;48.878;18.040;2022-10-22T01:05:16;98386.34;;;9.87;71.58
49297;BME280;35163;48.878;18.040;2022-10-22T01:07:47;98384.63;;;9.86;71.27
49297;BME280;35163;48.878;18.040;2022-10-22T01:10:33;98383.13;;;9.79;71.28
49297;BME280;35163;48.878;18.040;2022-10-22T01:16:08;98385.06;;;9.70;71.82
49297;BME280;35163;48.878;18.040;2022-10-22T01:18:37;98392.63;;;9.78;71.45
49297;BME280;35163;48.878;18.040;2022-10-22T01:21:11;98397.75;;;9.80;71.46
49297;BME280;35163;48.878;18.040;2022-10-22T01:24:22;98412.47;;;9.76;73.04
49297;BME280;35163;48.878;18.040;2022-10-22T01:29:39;98410.31;;;9.60;74.48
49297;BME280;35163;48.878;18.040;2022-10-22T01:32:11;98415.44;;;9.62;74.96
49297;BME280;35163;48.878;18.040;2022-10-22T01:34:41;98413.69;;;9.63;75.13
49297;BME280;35163;48.878;18.040;2022-10-22T01:37:11;98407.19;;;9.49;76.12
49297;BME280;35163;48.878;18.040;2022-10-22T01:39:41;98411.00;;;9.35;76.85
49297;BME280;35163;48.878;18.040;2022-10-22T01:42:11;98397.91;;;9.42;76.43
49297;BME280;35163;48.878;18.040;2022-10-22T01:44:38;98391.16;;;9.36;76.79
49297;BME280;35163;48.878;18.040;2022-10-22T01:55:28;98400.63;;;9.37;76.64
49297;BME280;35163;48.878;18.040;2022-10-22T02:00:37;98416.06;;;9.39;77.15
49297;BME280;35163;48.878;18.040;2022-10-22T02:03:09;98417.03;;;9.34;76.63
49297;BME280;35163;48.878;18.040;2022-10-22T02:05:47;98409.31;;;9.33;76.30
49297;BME280;35163;48.878;18.040;2022-10-22T02:08:27;98398.16;;;9.32;77.03
49297;BME280;35163;48.878;18.040;2022-10-22T02:10:56;98410.38;;;9.26;77.11
49297;BME280;35163;48.878;18.040;2022-10-22T02:13:26;98412.94;;;9.26;77.19
49297;BME280;35163;48.878;18.040;2022-10-22T02:15:55;98407.91;;;9.21;77.10
49297;BME280;35163;48.878;18.040;2022-10-22T02:18:26;98406.31;;;9.15;77.14
49297;BME280;35163;48.878;18.040;2022-10-22T02:20:53;98405.59;;;9.11;76.82
49297;BME280;35163;48.878;18.040;2022-10-22T02:23:20;98396.13;;;9.10;77.22
49297;BME280;35163;48.878;18.040;2022-10-22T02:25:52;98399.56;;;9.11;77.14
49297;BME280;35163;48.878;18.040;2022-10-22T02:28:30;98399.56;;;9.11;77.18
49297;BME280;35163;48.878;18.040;2022-10-22T02:31:05;98405.47;;;9.16;76.65
49297;BME280;35163;48.878;18.040;2022-10-22T02:33:37;98392.34;;;9.24;76.68
49297;BME280;35163;48.878;18.040;2022-10-22T02:36:07;98385.47;;;9.24;76.54
49297;BME280;35163;48.878;18.040;2022-10-22T02:38:35;98387.09;;;9.29;76.13
49297;BME280;35163;48.878;18.040;2022-10-22T02:41:02;98386.94;;;9.33;75.73
49297;BME280;35163;48.878;18.040;2022-10-22T02:43:29;98397.16;;;9.38;75.91
49297;BME280;35163;48.878;18.040;2022-10-22T02:45:56;98388.69;;;9.33;76.18
49297;BME280;35163;48.878;18.040;2022-10-22T02:48:22;98375.22;;;9.21;76.53
49297;BME280;35163;48.878;18.040;2022-10-22T02:50:49;98370.38;;;9.09;77.13
49297;BME280;35163;48.878;18.040;2022-10-22T02:53:16;98365.25;;;9.07;77.46
49297;BME280;35163;48.878;18.040;2022-10-22T02:55:42;98360.41;;;8.95;78.32
49297;BME280;35163;48.878;18.040;2022-10-22T02:58:09;98353.41;;;9.00;78.04
49297;BME280;35163;48.878;18.040;2022-10-22T03:00:36;98344.53;;;9.10;77.34
49297;BME280;35163;48.878;18.040;2022-10-22T03:03:03;98347.84;;;9.16;76.71
49297;BME280;35163;48.878;18.040;2022-10-22T03:05:29;98353.09;;;9.13;77.14
49297;BME280;35163;48.878;18.040;2022-10-22T03:07:56;98353.78;;;9.19;76.97
49297;BME280;35163;48.878;18.040;2022-10-22T03:10:22;98355.31;;;9.27;76.51
49297;BME280;35163;48.878;18.040;2022-10-22T03:12:49;98350.91;;;9.30;76.79
49297;BME280;35163;48.878;18.040;2022-10-22T03:15:15;98356.13;;;9.29;76.37
49297;BME280;35163;48.878;18.040;2022-10-22T03:17:42;98349.44;;;9.21;76.77
49297;BME280;35163;48.878;18.040;2022-10-22T03:20:09;98352.81;;;9.23;76.79
49297;BME280;35163;48.878;18.040;2022-10-22T03:22:38;98340.06;;;9.17;76.88
49297;BME280;35163;48.878;18.040;2022-10-22T03:25:09;98336.34;;;8.96;77.43
49297;BME280;35163;48.878;18.040;2022-10-22T03:27:38;98352.03;;;8.86;78.32
49297;BME280;35163;48.878;18.040;2022-10-22T03:30:06;98342.75;;;8.81;78.77
49297;BME280;35163;48.878;18.040;2022-10-22T03:32:33;98341.84;;;8.82;79.00
49297;BME280;35163;48.878;18.040;2022-10-22T03:35:00;98325.47;;;8.83;78.64
49297;BME280;35163;48.878;18.040;2022-10-22T03:37:26;98317.66;;;8.86;78.26
49297;BME280;35163;48.878;18.040;2022-10-22T03:39:53;98313.22;;;8.91;78.08
49297;BME280;35163;48.878;18.040;2022-10-22T03:42:21;98318.38;;;8.91;78.12
49297;BME280;35163;48.878;18.040;2022-10-22T03:44:48;98323.41;;;8.97;77.10
49297;BME280;35163;48.878;18.040;2022-10-22T03:47:14;98330.09;;;9.05;77.75
49297;BME280;35163;48.878;18.040;2022-10-22T03:49:41;98328.38;;;9.04;78.05
49297;BME280;35163;48.878;18.040;2022-10-22T03:52:13;98339.84;;;8.93;78.30
49297;BME280;35163;48.878;18.040;2022-10-22T03:54:40;98343.22;;;8.95;77.76
49297;BME280;35163;48.878;18.040;2022-10-22T03:57:08;98341.72;;;8.86;78.27
49297;BME280;35163;48.878;18.040;2022-10-22T03:59:40;98354.34;;;8.97;77.92
49297;BME280;35163;48.878;18.040;2022-10-22T04:02:08;98367.06;;;9.04;78.14
49297;BME280;35163;48.878;18.040;2022-10-22T04:04:36;98364.50;;;9.04;78.07
49297;BME280;35163;48.878;18.040;2022-10-22T04:07:04;98355.94;;;9.02;78.16
49297;BME280;35163;48.878;18.040;2022-10-22T04:09:31;98349.28;;;8.94;77.93
49297;BME280;35163;48.878;18.040;2022-10-22T04:11:58;98356.16;;;8.94;78.26
49297;BME280;35163;48.878;18.040;2022-10-22T04:14:25;98347.66;;;8.90;78.05
49297;BME280;35163;48.878;18.040;2022-10-22T04:16:52;98344.25;;;8.88;78.47
49297;BME280;35163;48.878;18.040;2022-10-22T04:19:18;98351.13;;;8.89;78.62
49297;BME280;35163;48.878;18.040;2022-10-22T04:21:45;98344.25;;;8.88;78.26
49297;BME280;35163;48.878;18.040;2022-10-22T04:24:11;98345.28;;;8.82;78.55
49297;BME280;35163;48.878;18.040;2022-10-22T04:26:38;98347.91;;;8.79;78.45
49297;BME280;35163;48.878;18.040;2022-10-22T04:29:05;98337.91;;;8.68;78.64
49297;BME280;35163;48.878;18.040;2022-10-22T04:31:33;98320.25;;;8.51;79.56
49297;BME280;35163;48.878;18.040;2022-10-22T04:34:00;98329.13;;;8.39;79.98
49297;BME280;35163;48.878;18.040;2022-10-22T04:36:28;98330.94;;;8.34;80.55
49297;BME280;35163;48.878;18.040;2022-10-22T04:38:59;98334.19;;;8.42;80.26
49297;BME280;35163;48.878;18.040;2022-10-22T04:41:28;98343.38;;;8.53;80.12
49297;BME280;35163;48.878;18.040;2022-10-22T04:43:55;98352.88;;;8.50;79.70
49297;BME280;35163;48.878;18.040;2022-10-22T04:46:24;98350.34;;;8.49;79.69
49297;BME280;35163;48.878;18.040;2022-10-22T04:48:52;98346.78;;;8.55;79.77
49297;BME280;35163;48.878;18.040;2022-10-22T04:51:20;98340.94;;;8.48;79.89
49297;BME280;35163;48.878;18.040;2022-10-22T04:53:48;98346.25;;;8.40;80.58
49297;BME280;35163;48.878;18.040;2022-10-22T04:56:27;98342.94;;;8.35;80.73
49297;BME280;35163;48.878;18.040;2022-10-22T04:58:59;98336.19;;;8.31;80.89
49297;BME280;35163;48.878;18.040;2022-10-22T05:01:32;98342.50;;;8.15;81.14
49297;BME280;35163;48.878;18.040;2022-10-22T05:04:06;98352.50;;;8.30;81.27
49297;BME280;35163;48.878;18.040;2022-10-22T05:06:35;98336.00;;;8.38;80.93
49297;BME280;35163;48.878;18.040;2022-10-22T05:09:07;98343.09;;;8.29;81.24
49297;BME280;35163;48.878;18.040;2022-10-22T05:11:36;98342.91;;;8.36;80.68
49297;BME280;35163;48.878;18.040;2022-10-22T05:14:05;98340.38;;;8.35;80.54
49297;BME280;35163;48.878;18.040;2022-10-22T05:16:32;98343.88;;;8.32;80.80
49297;BME280;35163;48.878;18.040;2022-10-22T05:19:00;98338.47;;;8.42;80.44
49297;BME280;35163;48.878;18.040;2022-10-22T05:21:27;98340.06;;;8.47;80.55
49297;BME280;35163;48.878;18.040;2022-10-22T05:23:55;98341.72;;;8.51;80.96
49297;BME280;35163;48.878;18.040;2022-10-22T05:26:22;98340.75;;;8.56;80.96
49297;BME280;35163;48.878;18.040;2022-10-22T05:28:50;98340.72;;;8.57;80.79
49297;BME280;35163;48.878;18.040;2022-10-22T05:31:18;98342.31;;;8.63;81.13
49297;BME280;35163;48.878;18.040;2022-10-22T05:33:46;98338.97;;;8.59;80.93
49297;BME280;35163;48.878;18.040;2022-10-22T05:36:16;98332.81;;;8.65;81.13
49297;BME280;35163;48.878;18.040;2022-10-22T05:38:44;98333.59;;;8.69;80.32
49297;BME280;35163;48.878;18.040;2022-10-22T05:41:13;98337.94;;;8.67;80.11
49297;BME280;35163;48.878;18.040;2022-10-22T05:43:40;98334.34;;;8.72;79.58
49297;BME280;35163;48.878;18.040;2022-10-22T05:46:12;98349.75;;;8.75;79.32
49297;BME280;35163;48.878;18.040;2022-10-22T05:48:39;98364.25;;;8.80;79.77
49297;BME280;35163;48.878;18.040;2022-10-22T05:51:10;98364.44;;;8.72;80.04
49297;BME280;35163;48.878;18.040;2022-10-22T05:53:39;98363.13;;;8.54;80.45
49297;BME280;35163;48.878;18.040;2022-10-22T05:56:14;98371.97;;;8.42;80.49
49297;BME280;35163;48.878;18.040;2022-10-22T05:58:42;98372.84;;;8.42;81.03
49297;BME280;35163;48.878;18.040;2022-10-22T06:01:15;98356.47;;;8.43;81.10
49297;BME280;35163;48.878;18.040;2022-10-22T06:03:43;98350.94;;;8.24;81.93
49297;BME280;35163;48.878;18.040;2022-10-22T06:06:28;98353.94;;;8.42;80.84
49297;BME280;35163;48.878;18.040;2022-10-22T06:09:04;98369.06;;;8.57;80.21
49297;BME280;35163;48.878;18.040;2022-10-22T06:11:32;98382.53;;;8.70;80.44
49297;BME280;35163;48.878;18.040;2022-10-22T06:14:00;98383.91;;;8.84;79.54
49297;BME280;35163;48.878;18.040;2022-10-22T06:16:31;98381.75;;;9.02;79.50
49297;BME280;35163;48.878;18.040;2022-10-22T06:18:58;98375.31;;;9.18;78.59
49297;BME280;35163;48.878;18.040;2022-10-22T06:21:28;98363.88;;;9.29;78.44
49297;BME280;35163;48.878;18.040;2022-10-22T06:23:55;98359.97;;;9.45;78.17
49297;BME280;35163;48.878;18.040;2022-10-22T06:26:22;98357.25;;;9.50;77.36
49297;BME280;35163;48.878;18.040;2022-10-22T06:28:49;98372.31;;;9.66;77.05
49297;BME280;35163;48.878;18.040;2022-10-22T06:31:15;98375.81;;;9.93;75.99
49297;BME280;35163;48.878;18.040;2022-10-22T06:33:42;98382.97;;;9.85;75.53
49297;BME280;35163;48.878;18.040;2022-10-22T06:36:11;98382.84;;;9.88;75.20
49297;BME280;35163;48.878;18.040;2022-10-22T06:38:38;98386.06;;;9.96;74.86
49297;BME280;35163;48.878;18.040;2022-10-22T06:41:08;98379.47;;;10.15;74.44
49297;BME280;35163;48.878;18.040;2022-10-22T06:43:35;98360.22;;;10.25;74.85
49297;BME280;35163;48.878;18.040;2022-10-22T06:46:05;98369.44;;;10.34;74.94
49297;BME280;35163;48.878;18.040;2022-10-22T06:48:32;98383.09;;;10.38;74.51
49297;BME280;35163;48.878;18.040;2022-10-22T06:51:03;98393.75;;;10.57;74.10
49297;BME280;35163;48.878;18.040;2022-10-22T06:53:31;98409.00;;;10.65;74.23
49297;BME280;35163;48.878;18.040;2022-10-22T06:55:57;98404.63;;;10.67;73.65
49297;BME280;35163;48.878;18.040;2022-10-22T06:58:24;98390.91;;;10.65;73.60
49297;BME280;35163;48.878;18.040;2022-10-22T07:01:00;98387.50;;;10.64;74.01
49297;BME280;35163;48.878;18.040;2022-10-22T07:03:27;98377.06;;;10.67;74.17
49297;BME280;35163;48.878;18.040;2022-10-22T07:05:54;98382.81;;;10.76;73.62
49297;BME280;35163;48.878;18.040;2022-10-22T07:08:20;98385.00;;;10.88;73.46
49297;BME280;35163;48.878;18.040;2022-10-22T07:10:47;98385.78;;;10.90;73.46
49297;BME280;35163;48.878;18.040;2022-10-22T07:13:13;98392.50;;;10.96;72.88
49297;BME280;35163;48.878;18.040;2022-10-22T07:15:41;98393.06;;;11.04;72.80
49297;BME280;35163;48.878;18.040;2022-10-22T07:18:07;98393.94;;;11.05;72.93
49297;BME280;35163;48.878;18.040;2022-10-22T07:20:34;98410.84;;;11.15;72.41
49297;BME280;35163;48.878;18.040;2022-10-22T07:23:01;98411.41;;;11.24;71.93
49297;BME280;35163;48.878;18.040;2022-10-22T07:25:27;98416.53;;;11.51;71.39
49297;BME280;35163;48.878;18.040;2022-10-22T07:27:54;98408.44;;;11.84;71.20
49297;BME280;35163;48.878;18.040;2022-10-22T07:30:20;98411.13;;;12.05;69.20
49297;BME280;35163;48.878;18.040;2022-10-22T07:32:47;98425.47;;;12.15;68.79
49297;BME280;35163;48.878;18.040;2022-10-22T07:35:13;98430.03;;;12.07;69.09
49297;BME280;35163;48.878;18.040;2022-10-22T07:37:40;98426.84;;;12.00;69.55
49297;BME280;35163;48.878;18.040;2022-10-22T07:40:08;98412.25;;;11.98;69.57
49297;BME280;35163;48.878;18.040;2022-10-22T07:42:34;98419.38;;;11.93;69.07
49297;BME280;35163;48.878;18.040;2022-10-22T07:45:01;98428.25;;;11.85;69.29
49297;BME280;35163;48.878;18.040;2022-10-22T07:47:28;98439.72;;;11.79;69.63
49297;BME280;35163;48.878;18.040;2022-10-22T07:49:54;98454.72;;;11.70;69.88
49297;BME280;35163;48.878;18.040;2022-10-22T07:52:21;98462.25;;;11.52;70.18
49297;BME280;35163;48.878;18.040;2022-10-22T07:54:47;98449.44;;;11.47;71.13
49297;BME280;35163;48.878;18.040;2022-10-22T07:57:14;98447.03;;;11.42;70.99
49297;BME280;35163;48.878;18.040;2022-10-22T07:59:41;98442.19;;;11.33;71.03
49297;BME280;35163;48.878;18.040;2022-10-22T08:02:09;98439.59;;;11.32;70.97
49297;BME280;35163;48.878;18.040;2022-10-22T08:04:36;98441.31;;;11.33;71.24
49297;BME280;35163;48.878;18.040;2022-10-22T08:07:04;98436.88;;;11.36;71.75
49297;BME280;35163;48.878;18.040;2022-10-22T08:09:30;98441.22;;;11.36;71.61
49297;BME280;35163;48.878;18.040;2022-10-22T08:11:57;98444.84;;;11.30;71.43
49297;BME280;35163;48.878;18.040;2022-10-22T08:14:23;98450.81;;;11.32;71.45
49297;BME280;35163;48.878;18.040;2022-10-22T08:16:50;98460.25;;;11.35;71.37
49297;BME280;35163;48.878;18.040;2022-10-22T08:19:17;98453.06;;;11.43;71.24
49297;BME280;35163;48.878;18.040;2022-10-22T08:21:46;98453.69;;;11.50;71.09
49297;BME280;35163;48.878;18.040;2022-10-22T08:24:13;98451.13;;;11.74;70.67
49297;BME280;35163;48.878;18.040;2022-10-22T08:26:41;98448.13;;;11.85;70.50
49297;BME280;35163;48.878;18.040;2022-10-22T08:29:08;98437.94;;;11.80;70.03
49297;BME280;35163;48.878;18.040;2022-10-22T08:31:34;98416.78;;;11.69;70.96
49297;BME280;35163;48.878;18.040;2022-10-22T08:34:01;98423.88;;;11.63;71.19
49297;BME280;35163;48.878;18.040;2022-10-22T08:36:27;98444.25;;;11.73;71.38
49297;BME280;35163;48.878;18.040;2022-10-22T08:38:54;98448.03;;;11.88;70.59
49297;BME280;35163;48.878;18.040;2022-10-22T08:41:22;98453.00;;;11.94;70.65
49297;BME280;35163;48.878;18.040;2022-10-22T08:49:48;98460.91;;;12.15;69.87
49297;BME280;35163;48.878;18.040;2022-10-22T08:52:16;98440.22;;;12.13;69.41
49297;BME280;35163;48.878;18.040;2022-10-22T08:54:58;98422.63;;;12.22;68.59
49297;BME280;35163;48.878;18.040;2022-10-22T08:57:37;98431.81;;;12.07;69.00
49297;BME280;35163;48.878;18.040;2022-10-22T09:00:41;98440.53;;;12.28;70.33
49297;BME280;35163;48.878;18.040;2022-10-22T09:08:31;98426.50;;;12.79;70.44
49297;BME280;35163;48.878;18.040;2022-10-22T09:11:04;98434.56;;;12.71;70.37
49297;BME280;35163;48.878;18.040;2022-10-22T09:13:32;98438.50;;;12.81;69.20
49297;BME280;35163;48.878;18.040;2022-10-22T09:16:01;98442.72;;;12.84;68.14
49297;BME280;35163;48.878;18.040;2022-10-22T09:24:37;98471.34;;;12.82;67.70
49297;BME280;35163;48.878;18.040;2022-10-22T09:27:25;98473.25;;;12.77;67.76
49297;BME280;35163;48.878;18.040;2022-10-22T09:29:52;98468.06;;;12.77;68.12
49297;BME280;35163;48.878;18.040;2022-10-22T09:32:18;98482.06;;;12.73;68.18
49297;BME280;35163;48.878;18.040;2022-10-22T09:34:46;98490.88;;;12.69;68.13
49297;BME280;35163;48.878;18.040;2022-10-22T09:37:18;98481.47;;;12.66;68.15
49297;BME280;35163;48.878;18.040;2022-10-22T09:39:50;98481.47;;;12.66;68.80
49297;BME280;35163;48.878;18.040;2022-10-22T09:42:19;98490.03;;;12.68;68.66
49297;BME280;35163;48.878;18.040;2022-10-22T09:44:57;98499.69;;;12.64;68.39
49297;BME280;35163;48.878;18.040;2022-10-22T09:50:26;98499.81;;;12.61;68.51
49297;BME280;35163;48.878;18.040;2022-10-22T09:55:25;98503.41;;;12.57;68.56
49297;BME280;35163;48.878;18.040;2022-10-22T09:57:56;98498.47;;;12.51;68.29
49297;BME280;35163;48.878;18.040;2022-10-22T10:00:24;98488.03;;;12.52;69.02
49297;BME280;35163;48.878;18.040;2022-10-22T10:02:58;98494.06;;;12.53;68.58
49297;BME280;35163;48.878;18.040;2022-10-22T10:05:31;98492.53;;;12.47;69.17
49297;BME280;35163;48.878;18.040;2022-10-22T10:08:07;98488.44;;;12.42;69.57
49297;BME280;35163;48.878;18.040;2022-10-22T10:10:46;98495.09;;;12.49;68.94
49297;BME280;35163;48.878;18.040;2022-10-22T10:18:51;98492.03;;;12.61;70.04
49297;BME280;35163;48.878;18.040;2022-10-22T10:21:32;98492.91;;;12.60;71.56
49297;BME280;35163;48.878;18.040;2022-10-22T10:29:40;98493.81;;;12.59;73.17
49297;BME280;35163;48.878;18.040;2022-10-22T10:37:23;98486.28;;;12.53;74.43
49297;BME280;35163;48.878;18.040;2022-10-22T10:40:13;98486.50;;;12.47;75.98
49297;BME280;35163;48.878;18.040;2022-10-22T10:43:40;98486.69;;;12.42;76.78
49297;BME280;35163;48.878;18.040;2022-10-22T10:48:48;98488.69;;;12.35;75.76
49297;BME280;35163;48.878;18.040;2022-10-22T10:54:34;98472.25;;;12.35;78.02
49297;BME280;35163;48.878;18.040;2022-10-22T10:57:10;98472.13;;;12.38;75.69
49297;BME280;35163;48.878;18.040;2022-10-22T11:02:48;98476.44;;;12.39;76.11
49297;BME280;35163;48.878;18.040;2022-10-22T11:07:51;98480.22;;;12.30;77.96
49297;BME280;35163;48.878;18.040;2022-10-22T11:10:32;98476.84;;;12.28;79.46
49297;BME280;35163;48.878;18.040;2022-10-22T11:13:11;98480.22;;;12.30;78.77
49297;BME280;35163;48.878;18.040;2022-10-22T11:15:41;98479.44;;;12.28;79.47
49297;BME280;35163;48.878;18.040;2022-10-22T11:18:13;98481.34;;;12.23;77.61
49297;BME280;35163;48.878;18.040;2022-10-22T11:23:51;98495.28;;;12.20;78.77
49297;BME280;35163;48.878;18.040;2022-10-22T11:28:58;98498.06;;;12.15;79.65
49297;BME280;35163;48.878;18.040;2022-10-22T11:31:26;98496.34;;;12.14;80.47
49297;BME280;35163;48.878;18.040;2022-10-22T11:37:09;98505.31;;;12.04;81.79
49297;BME280;35163;48.878;18.040;2022-10-22T11:39:41;98493.28;;;12.03;82.45
49297;BME280;35163;48.878;18.040;2022-10-22T11:42:11;98486.09;;;12.11;83.53
49297;BME280;35163;48.878;18.040;2022-10-22T11:45:01;98486.94;;;12.12;84.53
49297;BME280;35163;48.878;18.040;2022-10-22T11:47:37;98481.00;;;12.08;85.68
49297;BME280;35163;48.878;18.040;2022-10-22T11:50:21;98477.56;;;12.08;84.70
49297;BME280;35163;48.878;18.040;2022-10-22T11:53:05;98474.06;;;12.09;84.42
49297;BME280;35163;48.878;18.040;2022-10-22T12:11:27;98473.22;;;12.08;86.19
49297;BME280;35163;48.878;18.040;2022-10-22T12:14:25;98463.72;;;12.09;85.60
49297;BME280;35163;48.878;18.040;2022-10-22T12:19:44;98460.81;;;11.93;81.80
49297;BME280;35163;48.878;18.040;2022-10-22T12:22:18;98464.16;;;11.96;82.51
49297;BME280;35163;48.878;18.040;2022-10-22T12:24:48;98464.94;;;11.98;85.11
49297;BME280;35163;48.878;18.040;2022-10-22T12:27:25;98467.47;;;12.00;86.05
49297;BME280;35163;48.878;18.040;2022-10-22T12:29:59;98464.88;;;12.00;86.29
49297;BME280;35163;48.878;18.040;2022-10-22T12:32:38;98477.00;;;11.99;85.31
49297;BME280;35163;48.878;18.040;2022-10-22T12:35:14;98473.53;;;11.99;85.96
49297;BME280;35163;48.878;18.040;2022-10-22T12:37:41;98467.69;;;11.94;86.51
49297;BME280;35163;48.878;18.040;2022-10-22T12:40:32;98459.16;;;11.91;86.18
49297;BME280;35163;48.878;18.040;2022-10-22T12:43:13;98453.09;;;11.91;87.02
49297;BME280;35163;48.878;18.040;2022-10-22T12:45:42;98454.91;;;11.89;85.56
49297;BME280;35163;48.878;18.040;2022-10-22T12:50:46;98440.41;;;11.83;85.47
49297;BME280;35163;48.878;18.040;2022-10-22T12:53:27;98431.75;;;11.84;84.06
49297;BME280;35163;48.878;18.040;2022-10-22T12:55:59;98430.16;;;11.80;84.16
49297;BME280;35163;48.878;18.040;2022-10-22T12:58:37;98437.00;;;11.83;84.65
49297;BME280;35163;48.878;18.040;2022-10-22T13:01:05;98440.34;;;11.86;85.62
49297;BME280;35163;48.878;18.040;2022-10-22T13:09:01;98427.03;;;11.72;89.22
49297;BME280;35163;48.878;18.040;2022-10-22T13:12:02;98424.66;;;11.65;89.10
49297;BME280;35163;48.878;18.040;2022-10-22T13:14:35;98426.97;;;11.73;88.77
49297;BME280;35163;48.878;18.040;2022-10-22T13:22:35;98437.59;;;11.65;91.47
49297;BME280;35163;48.878;18.040;2022-10-22T13:30:24;98442.56;;;11.72;93.25
49297;BME280;35163;48.878;18.040;2022-10-22T13:32:54;98434.78;;;11.72;93.42
49297;BME280;35163;48.878;18.040;2022-10-22T13:35:28;98440.88;;;11.71;92.48
49297;BME280;35163;48.878;18.040;2022-10-22T13:37:55;98443.56;;;11.67;92.60
49297;BME280;35163;48.878;18.040;2022-10-22T13:40:22;98443.63;;;11.66;92.00
49297;BME280;35163;48.878;18.040;2022-10-22T13:42:48;98452.25;;;11.66;92.47
49297;BME280;35163;48.878;18.040;2022-10-22T13:45:16;98450.44;;;11.69;93.01
49297;BME280;35163;48.878;18.040;2022-10-22T13:47:49;98453.91;;;11.67;92.70
49297;BME280;35163;48.878;18.040;2022-10-22T13:50:19;98441.09;;;11.64;93.30
49297;BME280;35163;48.878;18.040;2022-10-22T13:52:50;98442.78;;;11.65;94.18
49297;BME280;35163;48.878;18.040;2022-10-22T13:57:44;98449.75;;;11.63;94.45
49297;BME280;35163;48.878;18.040;2022-10-22T14:00:14;98447.22;;;11.62;94.77
49297;BME280;35163;48.878;18.040;2022-10-22T14:02:42;98448.09;;;11.61;94.51
49297;BME280;35163;48.878;18.040;2022-10-22T14:05:09;98441.31;;;11.58;95.08
49297;BME280;35163;48.878;18.040;2022-10-22T14:07:37;98434.44;;;11.57;94.98
49297;BME280;35163;48.878;18.040;2022-10-22T14:10:17;98436.13;;;11.58;95.44
49297;BME280;35163;48.878;18.040;2022-10-22T14:12:45;98435.22;;;11.59;95.73
49297;BME280;35163;48.878;18.040;2022-10-22T14:15:21;98445.53;;;11.61;95.65
49297;BME280;35163;48.878;18.040;2022-10-22T14:17:53;98439.66;;;11.55;95.06
49297;BME280;35163;48.878;18.040;2022-10-22T14:20:22;98435.50;;;11.51;95.70
49297;BME280;35163;48.878;18.040;2022-10-22T14:22:51;98438.88;;;11.53;96.74
49297;BME280;35163;48.878;18.040;2022-10-22T14:25:19;98452.72;;;11.52;96.91
49297;BME280;35163;48.878;18.040;2022-10-22T14:27:47;98450.06;;;11.54;96.98
49297;BME280;35163;48.878;18.040;2022-10-22T14:30:24;98453.78;;;11.47;95.05
49297;BME280;35163;48.878;18.040;2022-10-22T14:32:51;98447.03;;;11.42;94.31
49297;BME280;35163;48.878;18.040;2022-10-22T14:35:21;98447.03;;;11.42;94.95
49297;BME280;35163;48.878;18.040;2022-10-22T14:37:48;98435.06;;;11.38;94.47
49297;BME280;35163;48.878;18.040;2022-10-22T14:40:18;98443.75;;;11.37;94.35
49297;BME280;35163;48.878;18.040;2022-10-22T14:42:46;98444.66;;;11.36;94.22
49297;BME280;35163;48.878;18.040;2022-10-22T14:45:22;98442.94;;;11.35;94.73
49297;BME280;35163;48.878;18.040;2022-10-22T14:47:50;98439.41;;;11.38;95.80
49297;BME280;35163;48.878;18.040;2022-10-22T14:50:17;98427.69;;;11.27;94.32
49297;BME280;35163;48.878;18.040;2022-10-22T14:52:44;98421.47;;;11.33;94.67
49297;BME280;35163;48.878;18.040;2022-10-22T14:55:12;98433.44;;;11.36;95.26
49297;BME280;35163;48.878;18.040;2022-10-22T14:57:40;98427.34;;;11.37;95.61
49297;BME280;35163;48.878;18.040;2022-10-22T15:00:10;98431.84;;;11.32;94.69
49297;BME280;35163;48.878;18.040;2022-10-22T15:02:37;98439.53;;;11.35;94.06
49297;BME280;35163;48.878;18.040;2022-10-22T15:05:05;98435.56;;;11.24;94.59
49297;BME280;35163;48.878;18.040;2022-10-22T15:07:32;98430.44;;;11.23;94.79
49297;BME280;35163;48.878;18.040;2022-10-22T15:09:58;98435.81;;;11.16;96.05
49297;BME280;35163;48.878;18.040;2022-10-22T15:12:25;98451.91;;;11.25;96.78